This is the latest recevied weather packets stored in our database for station/object SV2ASS-2. If no packets are shown the sender has not sent any weather packets the latest 10 day(s).
| Time | Temp. | Humidity | Pressure | Rain* | Wind** | Luminosity | Snow |
|---|---|---|---|---|---|---|---|
| 1777134654 | 21.11° C | 45% | 1016.5 hPa | - | - | - | - |
| 1777133756 | 22.22° C | 40% | 1016.6 hPa | - | - | - | - |
| 1777132856 | 23.33° C | 35% | 1016.6 hPa | - | - | - | - |
| 1777131956 | 25° C | 30% | 1016.6 hPa | - | - | - | - |
| 1777131056 | 25.56° C | 28% | 1016.6 hPa | - | - | - | - |
| 1777130156 | 23.89° C | 31% | 1016.7 hPa | - | - | - | - |
| 1777129256 | 23.89° C | 30% | 1016.7 hPa | - | - | - | - |
| 1777128356 | 23.33° C | 31% | 1016.8 hPa | - | - | - | - |
| 1777127456 | 23.89° C | 30% | 1016.7 hPa | - | - | - | - |
| 1777126555 | 23.89° C | 29% | 1016.8 hPa | - | - | - | - |
| 1777125655 | 24.44° C | 31% | 1016.8 hPa | - | - | - | - |
| 1777124755 | 23.89° C | 33% | 1017 hPa | - | - | - | - |
| 1777123855 | 23.89° C | 32% | 1017.1 hPa | - | - | - | - |
| 1777122955 | 24.44° C | 31% | 1017.2 hPa | - | - | - | - |
| 1777122055 | 25.56° C | 32% | 1017.4 hPa | - | - | - | - |
| 1777121155 | 23.33° C | 32% | 1017.6 hPa | - | - | - | - |
| 1777120255 | 23.89° C | 32% | 1017.8 hPa | - | - | - | - |
| 1777119355 | 23.89° C | 34% | 1018 hPa | - | - | - | - |
| 1777118455 | 23.89° C | 32% | 1018.1 hPa | - | - | - | - |
| 1777117555 | 23.33° C | 36% | 1018.4 hPa | - | - | - | - |
| 1777116655 | 22.78° C | 36% | 1018.4 hPa | - | - | - | - |
| 1777115754 | 22.22° C | 34% | 1018.5 hPa | - | - | - | - |
| 1777114854 | 22.22° C | 36% | 1018.5 hPa | - | - | - | - |
| 1777113954 | 21.67° C | 34% | 1018.7 hPa | - | - | - | - |
| 1777113054 | 21.67° C | 34% | 1018.8 hPa | - | - | - | - |
* Rain since midnight (hover to see other rain measurements)
** Current wind speed in m/s (hover to see current wind gust speed)